Time;durP1;ratioP1;P1;durP2;ratioP2;P2;SDS_P1;SDS_P2;PMS_P1;PMS_P2;Temp;Humidity;BMP_temperature;BMP_pressure;BME280_temperature;BME280_humidity;BME280_pressure;Samples;Min_cycle;Max_cycle;Signal;HPM_P1;HPM_P2
2023/07/12 00:00:45;;;;;;;11.40;4.95;;;22.90;99.90;;;;;;4997367;28;20112;-71
2023/07/12 00:03:12;;;;;;;13.82;4.43;;;22.90;99.90;;;;;;4997345;28;20026;-70
2023/07/12 00:05:38;;;;;;;8.88;4.05;;;22.80;99.90;;;;;;4997358;28;20069;-71
2023/07/12 00:08:04;;;;;;;10.00;4.38;;;22.80;99.90;;;;;;4997317;28;20031;-70
2023/07/12 00:10:35;;;;;;;11.38;4.90;;;22.80;99.90;;;;;;4996859;28;20026;-71
2023/07/12 00:13:02;;;;;;;7.35;3.80;;;22.80;99.90;;;;;;4997249;28;20034;-72
2023/07/12 00:15:30;;;;;;;9.40;4.43;;;22.70;99.90;;;;;;4997050;28;20029;-70
2023/07/12 00:17:56;;;;;;;9.23;4.50;;;22.70;99.90;;;;;;4996982;28;20034;-71
2023/07/12 00:20:24;;;;;;;7.97;4.35;;;22.70;99.90;;;;;;4996926;28;20478;-71
2023/07/12 00:22:51;;;;;;;9.82;4.80;;;22.70;99.90;;;;;;4989616;28;20029;-71
2023/07/12 00:25:18;;;;;;;10.20;4.05;;;22.70;99.90;;;;;;4996540;28;20395;-71
2023/07/12 00:27:44;;;;;;;6.53;3.97;;;22.70;99.90;;;;;;4990120;28;20030;-70
2023/07/12 00:30:15;;;;;;;8.63;4.25;;;22.60;99.90;;;;;;4996794;28;20030;-71
2023/07/12 00:32:41;;;;;;;10.38;4.82;;;22.60;99.90;;;;;;4996950;28;20030;-71
2023/07/12 00:35:07;;;;;;;6.70;4.60;;;22.60;99.90;;;;;;4995369;28;20022;-71
2023/07/12 00:37:32;;;;;;;10.27;4.63;;;22.50;99.90;;;;;;4996709;28;20026;-70
2023/07/12 00:39:58;;;;;;;6.82;4.20;;;22.40;99.90;;;;;;4996434;28;20523;-71
2023/07/12 00:42:33;;;;;;;8.55;4.82;;;22.40;99.90;;;;;;4996793;28;20065;-70
2023/07/12 00:45:01;;;;;;;8.57;4.63;;;22.40;99.90;;;;;;4996694;28;20022;-70
2023/07/12 00:47:29;;;;;;;6.85;4.68;;;22.30;99.90;;;;;;5028239;28;20058;-70
2023/07/12 00:49:55;;;;;;;5.90;4.05;;;22.30;99.90;;;;;;4995395;28;20085;-71
2023/07/12 00:52:21;;;;;;;8.07;4.93;;;22.30;99.90;;;;;;4995772;28;20026;-71
2023/07/12 00:54:59;;;;;;;10.82;4.57;;;22.20;99.90;;;;;;4996359;28;20022;-71
2023/07/12 00:57:30;;;;;;;6.07;4.53;;;22.20;99.90;;;;;;4992928;28;20023;-71
2023/07/12 00:59:59;;;;;;;11.43;4.72;;;22.20;99.90;;;;;;4994259;28;20074;-71
2023/07/12 01:02:25;;;;;;;9.77;4.18;;;22.20;99.90;;;;;;4996595;28;20038;-71
2023/07/12 01:04:55;;;;;;;9.63;5.05;;;22.10;99.90;;;;;;4995055;28;20030;-71
2023/07/12 01:07:22;;;;;;;14.85;4.72;;;22.10;99.90;;;;;;4996497;28;20125;-71
2023/07/12 01:09:48;;;;;;;7.22;4.72;;;22.10;99.90;;;;;;4996254;28;20034;-71
2023/07/12 01:12:14;;;;;;;13.38;5.38;;;22.00;99.90;;;;;;5027939;28;20094;-71
2023/07/12 01:14:41;;;;;;;7.30;4.20;;;22.00;99.90;;;;;;4996356;28;20113;-70
2023/07/12 01:17:07;;;;;;;11.23;5.10;;;21.90;99.90;;;;;;4996383;28;20050;-72
2023/07/12 01:19:36;;;;;;;8.95;4.90;;;21.90;99.90;;;;;;4996226;28;20058;-71
2023/07/12 01:22:03;;;;;;;10.30;4.38;;;21.90;99.90;;;;;;4996020;28;20054;-72
2023/07/12 01:24:31;;;;;;;7.03;4.55;;;21.80;99.90;;;;;;5027602;28;20552;-71
2023/07/12 01:27:01;;;;;;;13.45;4.50;;;21.70;99.90;;;;;;4994756;28;20029;-70
2023/07/12 01:29:28;;;;;;;7.63;4.38;;;21.70;99.90;;;;;;4996362;28;20110;-70
2023/07/12 01:31:53;;;;;;;9.48;5.10;;;21.70;99.90;;;;;;4995009;28;20070;-70
2023/07/12 01:34:21;;;;;;;8.45;4.72;;;21.70;99.90;;;;;;4996325;28;20050;-70
2023/07/12 01:36:47;;;;;;;11.10;5.07;;;21.70;99.90;;;;;;4996151;28;20030;-71
2023/07/12 01:39:12;;;;;;;16.80;5.43;;;21.70;99.90;;;;;;4995862;28;20019;-70
2023/07/12 01:41:39;;;;;;;12.05;4.65;;;21.60;99.90;;;;;;4996018;28;20038;-71
2023/07/12 01:44:05;;;;;;;10.52;4.90;;;21.60;99.90;;;;;;5027644;28;20502;-70
2023/07/12 01:46:31;;;;;;;9.18;5.68;;;21.60;99.90;;;;;;4989040;28;20033;-71
2023/07/12 01:48:57;;;;;;;11.68;4.65;;;21.60;99.90;;;;;;4996103;28;20486;-71
2023/07/12 01:51:23;;;;;;;7.65;4.20;;;21.60;99.90;;;;;;4996165;28;20111;-71
2023/07/12 01:53:48;;;;;;;12.32;4.70;;;21.60;99.90;;;;;;4996049;28;20035;-70
2023/07/12 01:56:16;;;;;;;9.77;5.88;;;21.60;99.90;;;;;;4995680;28;20085;-70
2023/07/12 01:58:41;;;;;;;8.10;4.60;;;21.60;99.90;;;;;;5022331;28;20030;-70
2023/07/12 02:01:08;;;;;;;11.70;5.55;;;21.50;99.90;;;;;;4994582;28;20037;-71
2023/07/12 02:03:33;;;;;;;9.70;4.75;;;21.50;99.90;;;;;;5028447;28;20022;-71
2023/07/12 02:05:59;;;;;;;11.00;4.70;;;21.50;99.90;;;;;;4999515;28;20081;-71
2023/07/12 02:08:25;;;;;;;10.52;5.07;;;21.50;99.90;;;;;;4998382;28;20031;-71
2023/07/12 02:10:50;;;;;;;8.75;4.82;;;21.50;99.90;;;;;;4999042;28;20101;-72
2023/07/12 02:13:18;;;;;;;9.77;4.30;;;21.50;99.90;;;;;;4999289;28;20035;-71
2023/07/12 02:16:03;;;;;;;9.98;4.75;;;21.40;99.90;;;;;;4999375;28;20128;-70
2023/07/12 02:21:12;;;;;;;9.02;4.40;;;21.40;99.90;;;;;;4999145;28;20104;-71
2023/07/12 02:23:38;;;;;;;11.73;5.32;;;21.40;99.90;;;;;;4999174;28;20026;-71
2023/07/12 02:26:04;;;;;;;8.65;3.78;;;21.40;99.90;;;;;;4998935;28;20030;-71
2023/07/12 02:28:29;;;;;;;7.88;4.88;;;21.40;99.90;;;;;;4999066;28;20101;-71
2023/07/12 02:31:14;;;;;;;13.45;4.70;;;21.40;99.90;;;;;;4999109;28;20621;-71
2023/07/12 02:33:39;;;;;;;8.48;5.20;;;21.40;99.90;;;;;;4999246;28;20028;-71
2023/07/12 02:36:05;;;;;;;7.55;4.30;;;21.40;99.90;;;;;;4998834;28;20117;-71
2023/07/12 02:38:31;;;;;;;11.23;4.75;;;21.30;99.90;;;;;;4999010;28;20030;-71
2023/07/12 02:40:56;;;;;;;11.90;4.70;;;21.30;99.90;;;;;;5029997;28;20026;-71
2023/07/12 02:43:22;;;;;;;8.05;4.30;;;21.30;99.90;;;;;;4998947;28;20026;-71
2023/07/12 02:45:48;;;;;;;10.93;3.95;;;21.30;99.90;;;;;;4998690;28;20030;-71
2023/07/12 02:48:13;;;;;;;8.90;4.75;;;21.30;99.90;;;;;;4998906;28;20044;-71
2023/07/12 02:50:39;;;;;;;10.30;3.88;;;21.30;99.90;;;;;;4997298;28;20128;-71
2023/07/12 02:53:19;;;;;;;10.70;4.22;;;21.30;99.90;;;;;;4998746;28;20088;-71
2023/07/12 02:55:48;;;;;;;9.85;4.35;;;21.20;99.90;;;;;;4994815;28;20034;-71
2023/07/12 02:58:14;;;;;;;6.68;4.03;;;21.20;99.90;;;;;;4990121;28;20031;-71
2023/07/12 03:00:39;;;;;;;10.13;4.75;;;21.20;99.90;;;;;;4998234;28;20149;-71
2023/07/12 03:03:05;;;;;;;7.15;4.13;;;21.20;99.90;;;;;;4998412;28;20105;-72
2023/07/12 03:05:34;;;;;;;11.40;3.63;;;21.20;99.90;;;;;;4997771;28;20504;-70
2023/07/12 03:07:59;;;;;;;5.70;3.38;;;21.20;99.90;;;;;;4998181;28;20029;-70
2023/07/12 03:10:25;;;;;;;6.82;3.70;;;21.10;99.90;;;;;;5029600;28;20026;-70
2023/07/12 03:12:53;;;;;;;4.55;2.78;;;21.10;99.90;;;;;;4998128;28;20034;-70
2023/07/12 03:15:19;;;;;;;7.35;3.53;;;21.10;99.90;;;;;;4997493;28;20021;-71
2023/07/12 03:17:45;;;;;;;10.65;3.22;;;21.10;99.90;;;;;;4996760;28;20372;-72
2023/07/12 03:20:11;;;;;;;7.50;3.75;;;21.10;99.90;;;;;;5029568;28;20084;-71
2023/07/12 03:22:37;;;;;;;6.63;3.15;;;21.10;99.90;;;;;;4998224;28;20030;-70
2023/07/12 03:25:03;;;;;;;6.70;3.17;;;21.10;99.90;;;;;;4997680;28;20026;-71
2023/07/12 03:27:28;;;;;;;7.95;3.67;;;21.10;99.90;;;;;;4997983;28;20411;-71
2023/07/12 03:29:54;;;;;;;4.60;2.85;;;21.10;99.90;;;;;;4997989;28;20049;-71
2023/07/12 03:32:19;;;;;;;6.25;3.00;;;21.10;99.90;;;;;;4998010;28;20033;-70
2023/07/12 03:34:45;;;;;;;5.68;3.10;;;21.10;99.90;;;;;;4997985;28;20832;-70
2023/07/12 03:37:14;;;;;;;5.60;2.63;;;21.00;99.90;;;;;;4997701;28;20584;-71
2023/07/12 03:39:39;;;;;;;8.63;3.20;;;21.00;99.90;;;;;;5029150;28;20034;-70
2023/07/12 03:42:05;;;;;;;7.93;3.40;;;21.00;99.90;;;;;;4997553;28;20029;-70
2023/07/12 03:44:31;;;;;;;7.13;2.72;;;21.00;99.90;;;;;;5029311;28;20088;-71
2023/07/12 03:46:57;;;;;;;7.78;3.10;;;20.90;99.90;;;;;;4997452;28;20018;-71
2023/07/12 03:49:23;;;;;;;5.40;2.90;;;20.90;99.90;;;;;;4997725;28;20027;-70
2023/07/12 03:51:48;;;;;;;5.78;2.90;;;20.80;99.90;;;;;;4997534;28;20034;-71
2023/07/12 03:54:14;;;;;;;5.97;3.35;;;20.80;99.90;;;;;;4997267;28;20522;-71
2023/07/12 03:56:40;;;;;;;3.75;2.33;;;20.80;99.90;;;;;;4997256;28;20031;-71
2023/07/12 03:59:08;;;;;;;9.05;2.60;;;20.80;99.90;;;;;;4988655;28;20026;-71
2023/07/12 04:01:35;;;;;;;6.82;2.75;;;20.90;99.90;;;;;;4995914;28;20037;-71
2023/07/12 04:04:00;;;;;;;8.00;3.22;;;20.90;99.90;;;;;;5028900;28;20113;-71
2023/07/12 04:06:26;;;;;;;5.18;2.63;;;20.80;99.90;;;;;;5028622;28;20062;-71
2023/07/12 04:08:52;;;;;;;8.35;3.03;;;20.90;99.90;;;;;;4997213;28;20061;-71
2023/07/12 04:11:28;;;;;;;4.70;3.15;;;20.90;99.90;;;;;;4997127;28;20108;-71
2023/07/12 04:13:54;;;;;;;4.20;3.05;;;21.00;99.90;;;;;;4997212;28;20027;-71
2023/07/12 04:16:23;;;;;;;6.70;2.78;;;20.90;99.90;;;;;;4997236;28;20030;-71
2023/07/12 04:18:49;;;;;;;6.50;3.15;;;20.90;99.90;;;;;;4996986;28;20084;-71
2023/07/12 04:21:14;;;;;;;9.55;2.88;;;20.90;99.90;;;;;;4996942;28;20038;-70
2023/07/12 04:23:40;;;;;;;7.72;3.03;;;20.90;99.90;;;;;;4997109;28;20027;-71
2023/07/12 04:26:06;;;;;;;8.65;3.15;;;20.80;99.90;;;;;;4996581;28;20025;-71
2023/07/12 04:28:36;;;;;;;6.93;2.55;;;20.80;99.90;;;;;;4996998;28;20105;-71
2023/07/12 04:31:10;;;;;;;4.85;2.80;;;20.80;99.90;;;;;;4996833;28;20037;-70
2023/07/12 04:33:36;;;;;;;7.18;2.58;;;20.80;99.90;;;;;;4996974;28;20161;-71
2023/07/12 04:36:10;;;;;;;9.52;3.05;;;20.80;99.90;;;;;;4996808;28;20058;-70
2023/07/12 04:38:36;;;;;;;6.35;3.15;;;20.80;99.90;;;;;;4995342;28;20026;-70
2023/07/12 04:41:03;;;;;;;7.97;3.15;;;20.80;99.90;;;;;;5027988;28;20022;-71
2023/07/12 04:43:29;;;;;;;7.03;3.30;;;20.80;99.90;;;;;;4995389;28;20105;-71
2023/07/12 04:45:56;;;;;;;8.05;3.03;;;20.70;99.90;;;;;;5028288;28;20042;-70
2023/07/12 04:48:22;;;;;;;9.60;3.00;;;20.70;99.90;;;;;;4991768;28;20030;-71
2023/07/12 04:50:52;;;;;;;11.70;3.70;;;20.70;99.90;;;;;;4996697;28;20089;-70
2023/07/12 04:53:18;;;;;;;8.65;3.30;;;20.60;99.90;;;;;;4996651;28;20438;-71
2023/07/12 04:55:44;;;;;;;5.90;3.20;;;20.60;99.90;;;;;;4996317;28;20031;-70
2023/07/12 04:58:10;;;;;;;10.52;3.40;;;20.60;99.90;;;;;;4988784;28;20023;-71
2023/07/12 05:00:35;;;;;;;5.57;3.13;;;20.60;99.90;;;;;;4996609;28;20430;-70
2023/07/12 05:03:01;;;;;;;6.63;3.20;;;20.60;99.90;;;;;;4996400;28;20023;-71
2023/07/12 05:05:27;;;;;;;7.35;3.28;;;20.60;99.90;;;;;;5028005;28;20121;-71
2023/07/12 05:07:53;;;;;;;9.35;3.47;;;20.60;99.90;;;;;;4996467;28;20084;-70
2023/07/12 05:10:19;;;;;;;7.95;3.20;;;20.50;99.90;;;;;;4996237;28;20407;-70
2023/07/12 05:12:44;;;;;;;9.32;3.20;;;20.50;99.90;;;;;;4996269;28;20050;-71
2023/07/12 05:15:11;;;;;;;5.65;3.30;;;20.60;99.90;;;;;;4996431;28;20081;-70
2023/07/12 05:17:38;;;;;;;7.22;3.60;;;20.50;99.90;;;;;;4996465;28;20030;-70
2023/07/12 05:20:06;;;;;;;6.13;4.38;;;20.50;99.90;;;;;;4996085;28;20030;-70
2023/07/12 05:22:33;;;;;;;4.78;2.92;;;20.50;99.90;;;;;;4995074;28;20022;-70
2023/07/12 05:24:59;;;;;;;5.45;3.28;;;20.50;99.90;;;;;;4995917;28;20089;-70
2023/07/12 05:27:26;;;;;;;6.55;3.00;;;20.50;99.90;;;;;;4996388;28;20018;-70
2023/07/12 05:29:52;;;;;;;5.93;3.40;;;20.60;99.90;;;;;;4996321;28;20039;-70
2023/07/12 05:32:17;;;;;;;5.22;3.75;;;20.60;99.90;;;;;;4996211;28;20497;-71
2023/07/12 05:34:43;;;;;;;6.55;3.25;;;20.60;99.90;;;;;;5027748;28;20034;-70
2023/07/12 05:37:11;;;;;;;8.80;3.08;;;20.60;99.90;;;;;;4996134;28;20101;-70
2023/07/12 05:39:37;;;;;;;7.70;3.58;;;20.60;99.90;;;;;;4998395;28;20060;-70
2023/07/12 05:42:03;;;;;;;7.32;3.10;;;20.70;99.90;;;;;;4999798;28;20031;-71
2023/07/12 05:44:29;;;;;;;5.13;3.25;;;20.70;99.90;;;;;;5000050;28;20030;-71
2023/07/12 05:46:54;;;;;;;12.68;3.65;;;20.80;99.90;;;;;;4999887;28;20479;-71
2023/07/12 05:49:20;;;;;;;9.50;3.42;;;20.80;99.90;;;;;;4999856;28;20049;-71
2023/07/12 05:51:46;;;;;;;6.25;2.90;;;20.90;99.90;;;;;;4999886;28;20030;-71
2023/07/12 05:54:12;;;;;;;8.50;3.25;;;20.90;99.90;;;;;;4999790;28;20058;-71
2023/07/12 05:56:38;;;;;;;5.72;2.85;;;20.90;99.90;;;;;;4999625;28;20041;-71
2023/07/12 05:59:04;;;;;;;5.30;2.70;;;21.00;99.90;;;;;;4990239;28;20124;-71
2023/07/12 06:01:30;;;;;;;3.47;2.42;;;20.90;99.90;;;;;;4999433;28;20050;-70
2023/07/12 06:03:56;;;;;;;9.13;3.08;;;21.00;99.90;;;;;;4999617;28;20018;-71
2023/07/12 06:06:22;;;;;;;5.57;3.10;;;21.10;99.90;;;;;;4999493;28;20034;-71
2023/07/12 06:08:47;;;;;;;4.85;2.75;;;21.10;99.90;;;;;;4999239;28;20042;-71
2023/07/12 06:11:13;;;;;;;6.80;2.40;;;21.10;99.90;;;;;;4999443;28;20045;-71
2023/07/12 06:13:39;;;;;;;5.88;2.85;;;21.20;99.90;;;;;;4999234;28;20034;-71
2023/07/12 06:16:05;;;;;;;4.93;2.88;;;21.20;99.90;;;;;;4998866;28;20026;-71
2023/07/12 06:18:31;;;;;;;6.22;2.75;;;21.20;99.90;;;;;;5030462;28;20372;-70
2023/07/12 06:21:00;;;;;;;7.10;2.97;;;21.10;99.90;;;;;;4999396;28;20050;-70
2023/07/12 06:23:26;;;;;;;6.18;3.30;;;21.10;99.90;;;;;;4983159;28;20027;-69
2023/07/12 06:25:57;;;;;;;6.47;2.95;;;21.10;99.90;;;;;;4990713;28;20054;-70
2023/07/12 06:28:22;;;;;;;;;;;21.10;99.90;;;;;;4998235;28;20050;-70
2023/07/12 06:30:48;;;;;;;5.75;2.65;;;21.10;99.90;;;;;;4995951;28;19913;-70
2023/07/12 06:33:13;;;;;;;6.40;2.53;;;21.10;99.90;;;;;;4996759;28;20507;-70
2023/07/12 06:35:39;;;;;;;5.82;2.80;;;21.00;99.90;;;;;;4996297;28;20057;-70
2023/07/12 06:38:05;;;;;;;5.82;2.72;;;20.80;99.90;;;;;;4998012;28;20022;-69
2023/07/12 06:40:31;;;;;;;8.27;3.35;;;20.70;99.90;;;;;;4995704;28;20431;-69
2023/07/12 06:42:57;;;;;;;4.85;2.90;;;20.70;99.90;;;;;;4994456;28;20027;-69
2023/07/12 06:45:22;;;;;;;6.50;2.85;;;20.50;99.90;;;;;;4997228;28;20532;-70
2023/07/12 06:47:48;;;;;;;6.18;2.95;;;20.50;99.90;;;;;;4997776;28;20030;-69
2023/07/12 06:50:14;;;;;;;8.52;3.38;;;20.50;99.90;;;;;;4996431;28;20491;-69
2023/07/12 06:52:39;;;;;;;3.65;2.58;;;20.40;99.90;;;;;;4997774;28;21242;-69
2023/07/12 06:55:05;;;;;;;6.82;2.97;;;20.30;99.90;;;;;;4996224;28;20030;-69
2023/07/12 06:57:34;;;;;;;9.48;3.13;;;20.30;99.90;;;;;;4993523;28;20039;-70
2023/07/12 07:00:06;;;;;;;8.63;3.83;;;20.20;99.90;;;;;;5029320;28;20037;-70
2023/07/12 07:02:32;;;;;;;8.23;3.08;;;20.20;99.90;;;;;;4997196;28;20014;-69
2023/07/12 07:04:58;;;;;;;6.78;3.25;;;20.20;99.90;;;;;;4995916;28;20090;-70
2023/07/12 07:07:24;;;;;;;4.53;3.20;;;20.30;99.90;;;;;;4997397;28;20041;-70
2023/07/12 07:09:49;;;;;;;6.93;2.67;;;20.40;99.90;;;;;;4996092;28;20026;-69
2023/07/12 07:12:15;;;;;;;4.65;2.72;;;20.40;99.90;;;;;;4995171;28;20033;-70
2023/07/12 07:14:41;;;;;;;5.00;2.97;;;20.40;99.90;;;;;;4996453;28;20018;-69
2023/07/12 07:17:11;;;;;;;4.18;2.40;;;20.40;99.90;;;;;;4997127;28;20026;-70
2023/07/12 07:19:37;;;;;;;5.60;2.90;;;20.40;99.90;;;;;;4997342;28;20049;-70
2023/07/12 07:22:03;;;;;;;4.50;3.28;;;20.40;99.90;;;;;;4992913;28;20054;-70
2023/07/12 07:24:29;;;;;;;6.97;2.65;;;20.50;99.90;;;;;;4991450;28;20050;-70
2023/07/12 07:26:55;;;;;;;3.42;2.40;;;20.50;99.90;;;;;;4991135;28;20027;-70
2023/07/12 07:29:20;;;;;;;5.30;2.95;;;20.50;99.90;;;;;;4995781;28;20037;-70
2023/07/12 07:31:46;;;;;;;5.35;3.08;;;20.60;99.90;;;;;;4996813;28;20084;-69
2023/07/12 07:34:13;;;;;;;5.25;2.53;;;20.60;99.90;;;;;;4993518;28;20038;-70
2023/07/12 07:36:38;;;;;;;7.60;3.20;;;20.70;99.90;;;;;;4993710;28;20030;-70
2023/07/12 07:39:05;;;;;;;11.60;3.30;;;20.70;99.90;;;;;;4995917;28;20030;-70
2023/07/12 07:41:31;;;;;;;6.55;3.15;;;20.80;99.90;;;;;;4994700;28;20073;-70
2023/07/12 07:43:56;;;;;;;9.23;2.85;;;20.90;99.90;;;;;;4996864;28;20027;-70
2023/07/12 07:46:22;;;;;;;6.35;3.10;;;21.00;99.90;;;;;;4995944;28;20077;-70
2023/07/12 07:48:48;;;;;;;6.43;3.10;;;21.10;99.90;;;;;;4993600;28;20408;-70
2023/07/12 07:51:14;;;;;;;6.53;2.95;;;21.20;99.90;;;;;;4992979;28;20030;-70
2023/07/12 07:53:40;;;;;;;6.38;3.00;;;21.20;99.90;;;;;;4995783;28;20026;-70
2023/07/12 07:56:07;;;;;;;4.25;2.33;;;21.30;99.90;;;;;;4994703;28;20038;-69
2023/07/12 07:58:33;;;;;;;7.43;2.75;;;21.30;99.90;;;;;;4994080;28;20076;-70
2023/07/12 08:00:59;;;;;;;7.72;2.90;;;21.50;99.90;;;;;;4995847;28;20034;-71
2023/07/12 08:03:25;;;;;;;8.48;3.03;;;21.60;99.90;;;;;;4996357;28;20642;-70
2023/07/12 08:05:51;;;;;;;8.13;2.92;;;21.60;99.90;;;;;;4993430;28;20034;-71
2023/07/12 11:38:55;;;;;;;5.18;2.35;;;25.70;99.90;;;;;;5564903;22;1297551;-72
2023/07/12 11:41:26;;;;;;;5.53;2.15;;;25.60;99.90;;;;;;4947054;28;20400;-69
2023/07/12 11:44:00;;;;;;;5.15;2.40;;;25.50;99.90;;;;;;4948294;29;20034;-69
2023/07/12 11:46:29;;;;;;;6.93;2.30;;;25.60;99.90;;;;;;4943001;28;20723;-69
2023/07/12 11:49:17;;;;;;;5.72;2.65;;;25.70;99.90;;;;;;4948504;29;21042;-69
2023/07/12 11:51:46;;;;;;;3.13;1.83;;;26.00;99.90;;;;;;4946724;28;20073;-70
2023/07/12 11:54:33;;;;;;;4.70;2.55;;;25.80;99.90;;;;;;4941169;28;20035;-68
2023/07/12 11:56:59;;;;;;;3.97;2.10;;;25.60;99.90;;;;;;4936846;28;20114;-69
2023/07/12 11:59:32;;;;;;;5.03;2.25;;;25.40;99.90;;;;;;4927152;28;20061;-68
2023/07/12 12:01:59;;;;;;;4.00;1.85;;;25.50;99.90;;;;;;5014504;22;20057;-69
2023/07/12 12:04:28;;;;;;;4.78;2.13;;;25.50;99.90;;;;;;5074249;28;20016;-69
2023/07/12 12:07:30;;;;;;;4.78;2.00;;;25.50;99.90;;;;;;5084614;28;20039;-68
2023/07/12 12:09:59;;;;;;;5.55;2.03;;;25.30;99.90;;;;;;5077582;28;20407;-69
2023/07/12 12:12:30;;;;;;;3.92;1.55;;;25.40;99.90;;;;;;5091841;28;20407;-69
2023/07/12 12:14:55;;;;;;;4.20;1.63;;;25.50;99.90;;;;;;5083381;28;20027;-69
2023/07/12 12:17:29;;;;;;;4.95;2.13;;;25.50;99.90;;;;;;5083421;28;20020;-70
2023/07/12 12:20:16;;;;;;;6.82;1.95;;;25.60;99.90;;;;;;5085235;28;20027;-69
2023/07/12 12:22:48;;;;;;;5.50;1.95;;;25.60;99.90;;;;;;5088065;28;20032;-72
2023/07/12 12:25:19;;;;;;;4.70;1.75;;;25.90;99.90;;;;;;5083154;28;20664;-71
2023/07/12 12:27:46;;;;;;;4.57;2.15;;;26.10;99.90;;;;;;5088742;28;20118;-71
2023/07/12 12:30:18;;;;;;;6.85;2.13;;;26.10;99.90;;;;;;5076462;28;20027;-71
2023/07/12 12:33:03;;;;;;;4.63;1.95;;;25.90;99.90;;;;;;5088021;28;20069;-70
2023/07/12 12:35:29;;;;;;;5.03;2.60;;;25.80;99.90;;;;;;5084671;28;20461;-71
2023/07/12 12:37:57;;;;;;;4.70;1.85;;;25.90;99.90;;;;;;5084242;28;20388;-72
2023/07/12 12:40:23;;;;;;;6.38;1.92;;;25.80;99.90;;;;;;5069889;28;20027;-71
2023/07/12 12:43:02;;;;;;;3.90;1.95;;;26.00;99.90;;;;;;5074550;28;20020;-72
2023/07/12 12:45:33;;;;;;;3.92;2.08;;;26.10;99.90;;;;;;5087210;28;20051;-71
2023/07/12 12:48:00;;;;;;;6.45;2.22;;;26.30;99.90;;;;;;5094134;28;20119;-71
2023/07/12 12:50:26;;;;;;;4.32;1.98;;;26.50;99.90;;;;;;5064500;28;20020;-72
2023/07/12 12:52:56;;;;;;;6.65;2.97;;;27.00;99.90;;;;;;5086212;28;20020;-71
2023/07/12 12:55:22;;;;;;;3.97;2.00;;;27.50;99.90;;;;;;5081657;28;20085;-71
2023/07/12 12:57:48;;;;;;;5.22;1.80;;;27.60;99.90;;;;;;5085726;28;20029;-71
2023/07/12 13:00:20;;;;;;;10.15;2.10;;;27.50;99.90;;;;;;5087568;28;20523;-71
2023/07/12 13:02:46;;;;;;;3.70;1.60;;;27.30;99.90;;;;;;5082335;28;20058;-70
2023/07/12 13:05:16;;;;;;;5.05;2.22;;;26.90;99.90;;;;;;5083964;28;20023;-72
2023/07/12 13:07:44;;;;;;;4.45;2.33;;;26.70;99.90;;;;;;5088814;28;20031;-71
2023/07/12 13:10:19;;;;;;;5.63;2.47;;;26.60;99.90;;;;;;5079938;28;20135;-71
2023/07/12 13:12:45;;;;;;;4.70;2.30;;;26.60;99.90;;;;;;5085015;28;20024;-70
2023/07/12 13:15:20;;;;;;;5.80;1.85;;;26.40;99.90;;;;;;5082903;28;20495;-71
2023/07/12 13:17:48;;;;;;;5.68;2.13;;;26.30;99.90;;;;;;5085489;28;20503;-72
2023/07/12 13:20:16;;;;;;;3.95;2.15;;;26.30;99.90;;;;;;5065571;28;20025;-72
2023/07/12 13:22:45;;;;;;;3.33;2.03;;;26.50;99.90;;;;;;5071661;28;20479;-70
2023/07/12 13:25:10;;;;;;;5.95;1.90;;;26.60;99.90;;;;;;5079672;28;20052;-70
2023/07/12 13:27:39;;;;;;;4.25;1.95;;;26.70;99.90;;;;;;5085471;28;20435;-70
2023/07/12 13:30:17;;;;;;;5.40;2.25;;;26.50;99.90;;;;;;5069892;28;20039;-72
2023/07/12 13:32:43;;;;;;;4.95;1.85;;;26.30;99.90;;;;;;5089416;28;20070;-70
2023/07/12 13:35:17;;;;;;;4.22;2.20;;;26.20;99.90;;;;;;5081893;28;20020;-72
2023/07/12 13:37:44;;;;;;;7.00;2.30;;;26.30;99.90;;;;;;5080631;28;20111;-71
2023/07/12 13:40:14;;;;;;;4.53;1.90;;;26.30;99.90;;;;;;5080524;28;20048;-69
2023/07/12 13:42:44;;;;;;;4.70;2.20;;;26.50;99.90;;;;;;5083634;28;20029;-71
2023/07/12 13:45:14;;;;;;;;;;;26.40;99.90;;;;;;5080423;28;20039;-70
2023/07/12 13:47:40;;;;;;;7.30;2.58;;;26.20;99.90;;;;;;5069237;28;19912;-70
2023/07/12 13:50:11;;;;;;;4.93;1.70;;;25.90;99.90;;;;;;5083342;28;20032;-70
2023/07/12 13:52:37;;;;;;;5.13;2.47;;;25.90;99.90;;;;;;5068488;28;20509;-71
2023/07/12 13:55:04;;;;;;;5.18;2.38;;;25.80;99.90;;;;;;5082113;28;20020;-72
2023/07/12 13:57:33;;;;;;;4.90;2.47;;;25.80;99.90;;;;;;5086825;28;20103;-72
2023/07/12 13:59:59;;;;;;;4.32;1.80;;;25.90;99.90;;;;;;5068803;28;20039;-71
2023/07/12 14:02:32;;;;;;;4.88;1.98;;;25.90;99.90;;;;;;5082392;28;20123;-72
2023/07/12 14:05:00;;;;;;;6.60;2.30;;;25.80;99.90;;;;;;5080362;28;20082;-72
2023/07/12 14:07:29;;;;;;;4.47;2.00;;;25.60;99.90;;;;;;5088591;28;20024;-71
2023/07/12 14:09:56;;;;;;;4.93;2.42;;;25.50;99.90;;;;;;5084678;28;20543;-71
2023/07/12 14:12:23;;;;;;;4.68;2.00;;;25.40;99.90;;;;;;5088666;28;20016;-72
2023/07/12 14:14:50;;;;;;;6.40;2.08;;;25.40;99.90;;;;;;5085402;28;20046;-70
2023/07/12 14:17:19;;;;;;;6.72;2.78;;;25.40;99.90;;;;;;5085263;28;20467;-70
2023/07/12 14:19:47;;;;;;;5.18;2.47;;;25.40;99.90;;;;;;5085103;28;20024;-71
2023/07/12 14:22:15;;;;;;;5.57;2.50;;;25.50;99.90;;;;;;5084900;28;20072;-72
2023/07/12 14:24:42;;;;;;;5.30;1.98;;;25.40;99.90;;;;;;5082555;28;20025;-72
2023/07/12 14:27:17;;;;;;;5.95;2.33;;;25.50;99.90;;;;;;5083374;28;20013;-72
2023/07/12 14:29:43;;;;;;;5.05;2.35;;;25.60;99.90;;;;;;5083760;28;20028;-71
2023/07/12 14:32:20;;;;;;;6.00;2.47;;;25.50;99.90;;;;;;5073760;28;20479;-70
2023/07/12 14:34:46;;;;;;;4.72;2.45;;;25.60;99.90;;;;;;5084068;28;20024;-70
2023/07/12 14:37:14;;;;;;;4.05;2.25;;;25.60;99.90;;;;;;5082663;28;20042;-70
2023/07/12 14:39:40;;;;;;;3.70;2.40;;;25.50;99.90;;;;;;5086656;28;20055;-69
2023/07/12 14:42:14;;;;;;;4.45;2.75;;;25.50;99.90;;;;;;5096351;28;20395;-71
2023/07/12 14:44:41;;;;;;;3.75;2.28;;;25.60;99.90;;;;;;5087980;28;20035;-69
2023/07/12 14:47:12;;;;;;;7.70;2.50;;;25.60;99.90;;;;;;5071629;28;20077;-70
2023/07/12 14:49:39;;;;;;;4.55;2.20;;;25.80;99.90;;;;;;5090811;28;20098;-71
2023/07/12 14:52:34;;;;;;;4.53;2.70;;;25.90;99.90;;;;;;5087048;28;20017;-71
2023/07/12 14:55:02;;;;;;;6.40;2.10;;;25.90;99.90;;;;;;5070098;28;20017;-71
2023/07/12 14:57:29;;;;;;;4.22;2.00;;;25.70;99.90;;;;;;5085362;28;20016;-72
2023/07/12 14:59:55;;;;;;;5.65;2.38;;;25.50;99.90;;;;;;5091892;28;20039;-71
2023/07/12 15:02:26;;;;;;;3.75;2.20;;;25.40;99.90;;;;;;5085837;28;20044;-71
2023/07/12 15:04:57;;;;;;;12.98;2.85;;;25.30;99.90;;;;;;5065550;28;20017;-72
2023/07/12 15:07:29;;;;;;;3.67;2.40;;;25.50;99.90;;;;;;5067885;28;20529;-71
2023/07/12 15:09:57;;;;;;;6.05;2.10;;;25.70;99.90;;;;;;5084395;28;20029;-73
2023/07/12 15:12:41;;;;;;;6.28;2.92;;;26.00;99.90;;;;;;5093339;28;20024;-71
2023/07/12 15:15:14;;;;;;;5.95;2.45;;;26.20;99.90;;;;;;5067409;28;20027;-71
2023/07/12 15:17:41;;;;;;;5.60;2.63;;;26.30;99.90;;;;;;5090332;28;20419;-71
2023/07/12 15:20:10;;;;;;;4.88;2.22;;;26.40;99.90;;;;;;5092429;28;20400;-71
2023/07/12 15:22:37;;;;;;;8.23;2.15;;;26.60;99.90;;;;;;5067708;28;20060;-71
2023/07/12 15:25:13;;;;;;;4.80;2.40;;;26.70;99.90;;;;;;5072738;28;20024;-72
2023/07/12 15:27:39;;;;;;;4.88;1.70;;;26.70;99.90;;;;;;5091373;28;20063;-70
2023/07/12 15:30:05;;;;;;;9.38;2.63;;;27.20;99.90;;;;;;5093030;28;20024;-71
2023/07/12 15:32:31;;;;;;;14.50;3.97;;;27.50;99.90;;;;;;5092471;28;20031;-70
2023/07/12 15:34:56;;;;;;;6.88;2.58;;;27.40;99.90;;;;;;5088381;28;20017;-71
2023/07/12 15:37:23;;;;;;;5.90;2.35;;;27.10;99.90;;;;;;5090047;28;20024;-70
2023/07/12 15:39:49;;;;;;;8.65;2.92;;;26.80;99.90;;;;;;5089612;28;20107;-71
2023/07/12 15:42:17;;;;;;;6.10;1.98;;;26.50;99.90;;;;;;5075334;28;20059;-72
2023/07/12 15:44:46;;;;;;;5.53;2.60;;;26.30;99.90;;;;;;5088996;28;20035;-71
2023/07/12 15:47:15;;;;;;;6.45;2.50;;;26.30;99.90;;;;;;5088241;28;20028;-71
2023/07/12 15:49:41;;;;;;;8.18;2.92;;;26.20;99.90;;;;;;5093593;28;20047;-71
2023/07/12 16:53:43;;;;;;;3.75;2.35;;;26.10;99.90;;;;;;5067157;28;20453;-75
2023/07/12 16:56:17;;;;;;;4.68;2.25;;;25.70;99.90;;;;;;5063378;28;20032;-76
2023/07/12 16:58:43;;;;;;;5.20;2.50;;;25.90;99.90;;;;;;5065039;28;20032;-75
2023/07/12 17:01:30;;;;;;;3.75;1.98;;;26.50;99.90;;;;;;5064055;28;20560;-76
2023/07/12 17:03:57;;;;;;;3.83;2.20;;;27.10;99.90;;;;;;5068215;28;20044;-75
2023/07/12 17:06:23;;;;;;;5.03;2.10;;;27.40;99.90;;;;;;5060390;28;20021;-74
2023/07/12 17:08:50;;;;;;;3.17;1.65;;;27.40;99.90;;;;;;5070755;28;20028;-72
2023/07/12 17:11:20;;;;;;;4.68;2.25;;;27.30;99.90;;;;;;5069275;28;20619;-76
2023/07/12 17:13:46;;;;;;;5.85;2.15;;;26.90;99.90;;;;;;5068819;28;20037;-75
2023/07/12 17:16:14;;;;;;;8.05;2.80;;;26.80;99.90;;;;;;5059835;28;20030;-74
2023/07/12 17:18:39;;;;;;;5.57;2.30;;;26.60;99.90;;;;;;5062503;28;20035;-76
2023/07/12 17:21:13;;;;;;;3.97;2.00;;;26.50;99.90;;;;;;5062131;28;20021;-76
2023/07/12 17:23:40;;;;;;;3.58;2.42;;;26.40;99.90;;;;;;5068258;28;20082;-75